sensor_id;sensor_type;location;lat;lon;timestamp;P1;durP1;ratioP1;P2;durP2;ratioP2
49378;SDS011;35254;47.990;-1.608;2022-10-16T00:01:04;4.88;;;0.85;;
49378;SDS011;35254;47.990;-1.608;2022-10-16T00:03:36;1.55;;;0.50;;
49378;SDS011;35254;47.990;-1.608;2022-10-16T00:06:02;2.35;;;0.90;;
49378;SDS011;35254;47.990;-1.608;2022-10-16T00:08:28;3.40;;;0.65;;
49378;SDS011;35254;47.990;-1.608;2022-10-16T00:11:04;3.63;;;0.77;;
49378;SDS011;35254;47.990;-1.608;2022-10-16T00:13:32;5.78;;;1.15;;
49378;SDS011;35254;47.990;-1.608;2022-10-16T00:15:59;3.95;;;0.82;;
49378;SDS011;35254;47.990;-1.608;2022-10-16T00:18:26;1.45;;;0.55;;
49378;SDS011;35254;47.990;-1.608;2022-10-16T00:20:52;2.42;;;1.10;;
49378;SDS011;35254;47.990;-1.608;2022-10-16T00:23:18;7.90;;;1.15;;
49378;SDS011;35254;47.990;-1.608;2022-10-16T00:25:44;1.55;;;1.05;;
49378;SDS011;35254;47.990;-1.608;2022-10-16T00:28:09;3.17;;;0.80;;
49378;SDS011;35254;47.990;-1.608;2022-10-16T00:30:38;1.58;;;0.75;;
49378;SDS011;35254;47.990;-1.608;2022-10-16T00:33:05;4.43;;;0.83;;
49378;SDS011;35254;47.990;-1.608;2022-10-16T00:35:30;1.50;;;0.55;;
49378;SDS011;35254;47.990;-1.608;2022-10-16T00:37:56;1.73;;;0.60;;
49378;SDS011;35254;47.990;-1.608;2022-10-16T00:40:22;4.18;;;1.40;;
49378;SDS011;35254;47.990;-1.608;2022-10-16T00:42:47;2.15;;;0.68;;
49378;SDS011;35254;47.990;-1.608;2022-10-16T00:45:13;3.17;;;1.05;;
49378;SDS011;35254;47.990;-1.608;2022-10-16T00:47:39;1.45;;;0.45;;
49378;SDS011;35254;47.990;-1.608;2022-10-16T00:52:44;1.83;;;0.80;;
49378;SDS011;35254;47.990;-1.608;2022-10-16T00:55:13;1.25;;;0.98;;
49378;SDS011;35254;47.990;-1.608;2022-10-16T00:57:39;0.85;;;0.50;;
49378;SDS011;35254;47.990;-1.608;2022-10-16T01:00:07;1.15;;;1.05;;
49378;SDS011;35254;47.990;-1.608;2022-10-16T01:02:34;2.75;;;0.70;;
49378;SDS011;35254;47.990;-1.608;2022-10-16T01:05:00;0.95;;;0.57;;
49378;SDS011;35254;47.990;-1.608;2022-10-16T01:13:00;2.28;;;1.35;;
49378;SDS011;35254;47.990;-1.608;2022-10-16T01:20:59;1.95;;;0.77;;
49378;SDS011;35254;47.990;-1.608;2022-10-16T01:29:01;3.05;;;0.77;;
49378;SDS011;35254;47.990;-1.608;2022-10-16T01:31:32;0.73;;;0.60;;
49378;SDS011;35254;47.990;-1.608;2022-10-16T01:34:05;4.32;;;1.10;;
49378;SDS011;35254;47.990;-1.608;2022-10-16T01:36:36;2.33;;;0.75;;
49378;SDS011;35254;47.990;-1.608;2022-10-16T01:39:04;1.17;;;0.80;;
49378;SDS011;35254;47.990;-1.608;2022-10-16T01:41:33;1.77;;;0.80;;
49378;SDS011;35254;47.990;-1.608;2022-10-16T01:44:05;3.50;;;0.70;;
49378;SDS011;35254;47.990;-1.608;2022-10-16T01:46:52;2.17;;;1.15;;
49378;SDS011;35254;47.990;-1.608;2022-10-16T01:49:19;1.95;;;0.85;;
49378;SDS011;35254;47.990;-1.608;2022-10-16T01:51:48;1.98;;;0.95;;
49378;SDS011;35254;47.990;-1.608;2022-10-16T01:54:17;2.03;;;0.80;;
49378;SDS011;35254;47.990;-1.608;2022-10-16T01:56:45;1.42;;;0.90;;
49378;SDS011;35254;47.990;-1.608;2022-10-16T01:59:13;2.60;;;1.00;;
49378;SDS011;35254;47.990;-1.608;2022-10-16T02:01:43;4.13;;;0.88;;
49378;SDS011;35254;47.990;-1.608;2022-10-16T02:04:18;0.80;;;0.63;;
49378;SDS011;35254;47.990;-1.608;2022-10-16T02:06:46;2.88;;;0.77;;
49378;SDS011;35254;47.990;-1.608;2022-10-16T02:09:11;2.15;;;0.90;;
49378;SDS011;35254;47.990;-1.608;2022-10-16T02:11:37;1.33;;;0.65;;
49378;SDS011;35254;47.990;-1.608;2022-10-16T02:14:06;1.05;;;0.70;;
49378;SDS011;35254;47.990;-1.608;2022-10-16T02:16:37;1.10;;;0.63;;
49378;SDS011;35254;47.990;-1.608;2022-10-16T02:19:05;4.18;;;1.15;;
49378;SDS011;35254;47.990;-1.608;2022-10-16T02:29:10;1.75;;;0.93;;
49378;SDS011;35254;47.990;-1.608;2022-10-16T02:31:41;1.25;;;0.90;;
49378;SDS011;35254;47.990;-1.608;2022-10-16T02:36:36;1.42;;;0.70;;
49378;SDS011;35254;47.990;-1.608;2022-10-16T02:39:04;1.50;;;1.05;;
49378;SDS011;35254;47.990;-1.608;2022-10-16T02:41:30;1.55;;;0.85;;
49378;SDS011;35254;47.990;-1.608;2022-10-16T02:43:56;1.73;;;0.98;;
49378;SDS011;35254;47.990;-1.608;2022-10-16T02:46:22;2.15;;;1.10;;
49378;SDS011;35254;47.990;-1.608;2022-10-16T02:48:47;1.27;;;0.80;;
49378;SDS011;35254;47.990;-1.608;2022-10-16T02:51:13;1.50;;;1.13;;
49378;SDS011;35254;47.990;-1.608;2022-10-16T02:53:39;1.55;;;1.00;;
49378;SDS011;35254;47.990;-1.608;2022-10-16T02:56:04;4.03;;;1.20;;
49378;SDS011;35254;47.990;-1.608;2022-10-16T02:58:30;1.08;;;0.88;;
49378;SDS011;35254;47.990;-1.608;2022-10-16T03:00:55;1.25;;;1.00;;
49378;SDS011;35254;47.990;-1.608;2022-10-16T03:03:21;2.22;;;0.70;;
49378;SDS011;35254;47.990;-1.608;2022-10-16T03:05:47;1.20;;;1.05;;
49378;SDS011;35254;47.990;-1.608;2022-10-16T03:08:12;0.85;;;0.85;;
49378;SDS011;35254;47.990;-1.608;2022-10-16T03:10:38;2.47;;;1.38;;
49378;SDS011;35254;47.990;-1.608;2022-10-16T03:13:04;2.60;;;1.20;;
49378;SDS011;35254;47.990;-1.608;2022-10-16T03:15:30;3.30;;;0.90;;
49378;SDS011;35254;47.990;-1.608;2022-10-16T03:17:58;1.25;;;1.00;;
49378;SDS011;35254;47.990;-1.608;2022-10-16T03:20:25;0.98;;;0.85;;
49378;SDS011;35254;47.990;-1.608;2022-10-16T03:22:51;2.88;;;0.85;;
49378;SDS011;35254;47.990;-1.608;2022-10-16T03:25:17;2.53;;;1.38;;
49378;SDS011;35254;47.990;-1.608;2022-10-16T03:27:42;1.40;;;1.27;;
49378;SDS011;35254;47.990;-1.608;2022-10-16T03:30:08;2.50;;;1.10;;
49378;SDS011;35254;47.990;-1.608;2022-10-16T03:32:34;2.55;;;0.90;;
49378;SDS011;35254;47.990;-1.608;2022-10-16T03:35:00;1.27;;;0.88;;
49378;SDS011;35254;47.990;-1.608;2022-10-16T03:37:25;1.77;;;1.00;;
49378;SDS011;35254;47.990;-1.608;2022-10-16T03:39:51;2.45;;;0.75;;
49378;SDS011;35254;47.990;-1.608;2022-10-16T03:42:17;1.95;;;0.90;;
49378;SDS011;35254;47.990;-1.608;2022-10-16T03:44:42;2.08;;;1.20;;
49378;SDS011;35254;47.990;-1.608;2022-10-16T03:47:08;1.45;;;1.02;;
49378;SDS011;35254;47.990;-1.608;2022-10-16T03:49:34;3.35;;;0.90;;
49378;SDS011;35254;47.990;-1.608;2022-10-16T03:51:59;0.90;;;0.90;;
49378;SDS011;35254;47.990;-1.608;2022-10-16T03:54:25;1.58;;;0.80;;
49378;SDS011;35254;47.990;-1.608;2022-10-16T03:56:51;1.50;;;1.00;;
49378;SDS011;35254;47.990;-1.608;2022-10-16T03:59:16;2.67;;;1.00;;
49378;SDS011;35254;47.990;-1.608;2022-10-16T04:01:42;6.30;;;1.00;;
49378;SDS011;35254;47.990;-1.608;2022-10-16T04:04:08;4.38;;;1.27;;
49378;SDS011;35254;47.990;-1.608;2022-10-16T04:06:33;7.32;;;1.00;;
49378;SDS011;35254;47.990;-1.608;2022-10-16T04:08:59;1.58;;;1.48;;
49378;SDS011;35254;47.990;-1.608;2022-10-16T04:11:25;4.55;;;1.00;;
49378;SDS011;35254;47.990;-1.608;2022-10-16T04:13:50;1.15;;;0.98;;
49378;SDS011;35254;47.990;-1.608;2022-10-16T04:16:16;3.30;;;1.08;;
49378;SDS011;35254;47.990;-1.608;2022-10-16T04:18:42;1.48;;;0.93;;
49378;SDS011;35254;47.990;-1.608;2022-10-16T04:21:07;2.28;;;1.00;;
49378;SDS011;35254;47.990;-1.608;2022-10-16T04:23:33;9.07;;;1.08;;
49378;SDS011;35254;47.990;-1.608;2022-10-16T04:25:58;2.08;;;1.00;;
49378;SDS011;35254;47.990;-1.608;2022-10-16T04:28:25;2.28;;;1.02;;
49378;SDS011;35254;47.990;-1.608;2022-10-16T04:30:50;1.10;;;0.80;;
49378;SDS011;35254;47.990;-1.608;2022-10-16T04:33:16;2.58;;;0.85;;
49378;SDS011;35254;47.990;-1.608;2022-10-16T04:35:42;0.95;;;0.82;;
49378;SDS011;35254;47.990;-1.608;2022-10-16T04:38:07;1.38;;;1.02;;
49378;SDS011;35254;47.990;-1.608;2022-10-16T04:40:33;1.25;;;0.80;;
49378;SDS011;35254;47.990;-1.608;2022-10-16T04:43:01;1.33;;;1.00;;
49378;SDS011;35254;47.990;-1.608;2022-10-16T04:45:27;2.65;;;1.00;;
49378;SDS011;35254;47.990;-1.608;2022-10-16T04:47:56;1.08;;;1.00;;
49378;SDS011;35254;47.990;-1.608;2022-10-16T04:50:22;1.23;;;0.95;;
49378;SDS011;35254;47.990;-1.608;2022-10-16T04:52:48;1.17;;;1.08;;
49378;SDS011;35254;47.990;-1.608;2022-10-16T04:55:14;1.35;;;1.00;;
49378;SDS011;35254;47.990;-1.608;2022-10-16T04:57:40;3.90;;;0.98;;
49378;SDS011;35254;47.990;-1.608;2022-10-16T05:00:05;2.47;;;1.70;;
49378;SDS011;35254;47.990;-1.608;2022-10-16T05:02:32;1.08;;;0.77;;
49378;SDS011;35254;47.990;-1.608;2022-10-16T05:04:58;2.00;;;1.10;;
49378;SDS011;35254;47.990;-1.608;2022-10-16T05:07:24;4.22;;;0.90;;
49378;SDS011;35254;47.990;-1.608;2022-10-16T05:09:49;3.15;;;1.30;;
49378;SDS011;35254;47.990;-1.608;2022-10-16T05:12:15;2.85;;;1.02;;
49378;SDS011;35254;47.990;-1.608;2022-10-16T05:14:41;1.45;;;1.35;;
49378;SDS011;35254;47.990;-1.608;2022-10-16T05:17:07;3.22;;;1.20;;
49378;SDS011;35254;47.990;-1.608;2022-10-16T05:19:32;1.90;;;1.30;;
49378;SDS011;35254;47.990;-1.608;2022-10-16T05:21:58;1.67;;;1.50;;
49378;SDS011;35254;47.990;-1.608;2022-10-16T05:24:24;1.73;;;1.52;;
49378;SDS011;35254;47.990;-1.608;2022-10-16T05:26:50;1.83;;;0.95;;
49378;SDS011;35254;47.990;-1.608;2022-10-16T05:29:16;1.58;;;1.23;;
49378;SDS011;35254;47.990;-1.608;2022-10-16T05:31:42;1.27;;;0.85;;
49378;SDS011;35254;47.990;-1.608;2022-10-16T05:34:07;1.38;;;1.23;;
49378;SDS011;35254;47.990;-1.608;2022-10-16T05:36:33;0.90;;;0.90;;
49378;SDS011;35254;47.990;-1.608;2022-10-16T05:38:59;1.52;;;1.10;;
49378;SDS011;35254;47.990;-1.608;2022-10-16T05:41:24;1.52;;;1.20;;
49378;SDS011;35254;47.990;-1.608;2022-10-16T05:43:51;3.13;;;1.50;;
49378;SDS011;35254;47.990;-1.608;2022-10-16T05:46:17;2.83;;;1.38;;
49378;SDS011;35254;47.990;-1.608;2022-10-16T05:48:43;4.40;;;1.58;;
49378;SDS011;35254;47.990;-1.608;2022-10-16T05:51:09;2.70;;;1.38;;
49378;SDS011;35254;47.990;-1.608;2022-10-16T05:53:37;7.35;;;2.08;;
49378;SDS011;35254;47.990;-1.608;2022-10-16T05:56:04;1.95;;;1.48;;
49378;SDS011;35254;47.990;-1.608;2022-10-16T05:58:32;3.08;;;1.48;;
49378;SDS011;35254;47.990;-1.608;2022-10-16T06:01:03;1.70;;;1.40;;
49378;SDS011;35254;47.990;-1.608;2022-10-16T06:03:49;2.70;;;1.30;;
49378;SDS011;35254;47.990;-1.608;2022-10-16T06:06:21;2.40;;;1.30;;
49378;SDS011;35254;47.990;-1.608;2022-10-16T06:08:49;2.15;;;0.90;;
49378;SDS011;35254;47.990;-1.608;2022-10-16T06:11:21;2.90;;;1.40;;
49378;SDS011;35254;47.990;-1.608;2022-10-16T06:13:52;1.23;;;1.13;;
49378;SDS011;35254;47.990;-1.608;2022-10-16T06:16:19;2.55;;;1.42;;
49378;SDS011;35254;47.990;-1.608;2022-10-16T06:18:45;1.92;;;1.40;;
49378;SDS011;35254;47.990;-1.608;2022-10-16T06:21:12;1.23;;;1.00;;
49378;SDS011;35254;47.990;-1.608;2022-10-16T06:23:41;0.90;;;0.90;;
49378;SDS011;35254;47.990;-1.608;2022-10-16T06:26:07;1.70;;;1.42;;
49378;SDS011;35254;47.990;-1.608;2022-10-16T06:28:34;2.20;;;1.27;;
49378;SDS011;35254;47.990;-1.608;2022-10-16T06:31:01;2.10;;;1.30;;
49378;SDS011;35254;47.990;-1.608;2022-10-16T06:33:27;4.20;;;1.25;;
49378;SDS011;35254;47.990;-1.608;2022-10-16T06:35:53;1.67;;;1.17;;
49378;SDS011;35254;47.990;-1.608;2022-10-16T06:38:24;3.28;;;1.10;;
49378;SDS011;35254;47.990;-1.608;2022-10-16T06:40:50;2.95;;;1.35;;
49378;SDS011;35254;47.990;-1.608;2022-10-16T06:43:15;2.92;;;1.05;;
49378;SDS011;35254;47.990;-1.608;2022-10-16T06:45:41;1.25;;;1.10;;
49378;SDS011;35254;47.990;-1.608;2022-10-16T06:48:06;1.17;;;1.08;;
49378;SDS011;35254;47.990;-1.608;2022-10-16T06:50:32;2.25;;;1.20;;
49378;SDS011;35254;47.990;-1.608;2022-10-16T06:52:58;1.55;;;1.00;;
49378;SDS011;35254;47.990;-1.608;2022-10-16T06:55:23;1.80;;;1.35;;
49378;SDS011;35254;47.990;-1.608;2022-10-16T06:57:49;1.33;;;1.20;;
49378;SDS011;35254;47.990;-1.608;2022-10-16T07:00:15;1.33;;;1.10;;
49378;SDS011;35254;47.990;-1.608;2022-10-16T07:02:40;1.45;;;1.20;;
49378;SDS011;35254;47.990;-1.608;2022-10-16T07:05:06;4.47;;;1.05;;
49378;SDS011;35254;47.990;-1.608;2022-10-16T07:07:32;1.58;;;1.10;;
49378;SDS011;35254;47.990;-1.608;2022-10-16T07:09:57;2.22;;;1.50;;
49378;SDS011;35254;47.990;-1.608;2022-10-16T07:12:23;1.40;;;1.05;;
49378;SDS011;35254;47.990;-1.608;2022-10-16T07:14:48;1.75;;;1.42;;
49378;SDS011;35254;47.990;-1.608;2022-10-16T07:17:17;1.40;;;0.95;;
49378;SDS011;35254;47.990;-1.608;2022-10-16T07:19:42;1.08;;;1.02;;
49378;SDS011;35254;47.990;-1.608;2022-10-16T07:22:08;1.50;;;1.00;;
49378;SDS011;35254;47.990;-1.608;2022-10-16T07:24:34;1.33;;;0.90;;
49378;SDS011;35254;47.990;-1.608;2022-10-16T07:26:59;1.50;;;0.93;;
49378;SDS011;35254;47.990;-1.608;2022-10-16T07:29:25;1.40;;;1.30;;
49378;SDS011;35254;47.990;-1.608;2022-10-16T07:31:51;1.48;;;1.10;;
49378;SDS011;35254;47.990;-1.608;2022-10-16T07:34:17;0.88;;;0.88;;
49378;SDS011;35254;47.990;-1.608;2022-10-16T07:36:46;1.00;;;0.95;;
49378;SDS011;35254;47.990;-1.608;2022-10-16T07:39:13;1.30;;;1.00;;
49378;SDS011;35254;47.990;-1.608;2022-10-16T07:41:38;1.30;;;1.15;;
49378;SDS011;35254;47.990;-1.608;2022-10-16T07:44:04;1.42;;;0.82;;
49378;SDS011;35254;47.990;-1.608;2022-10-16T07:46:31;1.50;;;0.90;;
49378;SDS011;35254;47.990;-1.608;2022-10-16T07:48:58;1.98;;;1.15;;
49378;SDS011;35254;47.990;-1.608;2022-10-16T07:51:24;2.30;;;1.30;;
49378;SDS011;35254;47.990;-1.608;2022-10-16T07:53:51;6.30;;;1.50;;
49378;SDS011;35254;47.990;-1.608;2022-10-16T07:56:18;1.13;;;0.95;;
49378;SDS011;35254;47.990;-1.608;2022-10-16T07:58:44;1.88;;;1.40;;
49378;SDS011;35254;47.990;-1.608;2022-10-16T08:01:11;1.42;;;1.20;;
49378;SDS011;35254;47.990;-1.608;2022-10-16T08:03:43;3.72;;;1.27;;
49378;SDS011;35254;47.990;-1.608;2022-10-16T08:06:11;1.85;;;0.95;;
49378;SDS011;35254;47.990;-1.608;2022-10-16T08:08:37;2.08;;;1.05;;
49378;SDS011;35254;47.990;-1.608;2022-10-16T08:11:03;1.10;;;0.88;;
49378;SDS011;35254;47.990;-1.608;2022-10-16T08:13:29;1.17;;;1.10;;
49378;SDS011;35254;47.990;-1.608;2022-10-16T08:15:55;1.10;;;1.00;;
49378;SDS011;35254;47.990;-1.608;2022-10-16T08:18:21;1.17;;;1.10;;
49378;SDS011;35254;47.990;-1.608;2022-10-16T08:20:47;1.05;;;0.98;;
49378;SDS011;35254;47.990;-1.608;2022-10-16T08:23:12;0.90;;;0.90;;
49378;SDS011;35254;47.990;-1.608;2022-10-16T08:25:38;1.10;;;1.00;;
49378;SDS011;35254;47.990;-1.608;2022-10-16T08:28:05;3.58;;;1.00;;
49378;SDS011;35254;47.990;-1.608;2022-10-16T08:30:32;1.73;;;1.20;;
49378;SDS011;35254;47.990;-1.608;2022-10-16T08:32:58;2.83;;;0.85;;
49378;SDS011;35254;47.990;-1.608;2022-10-16T08:35:24;4.32;;;0.90;;
49378;SDS011;35254;47.990;-1.608;2022-10-16T08:37:50;11.52;;;1.20;;
49378;SDS011;35254;47.990;-1.608;2022-10-16T08:40:26;5.35;;;1.65;;
49378;SDS011;35254;47.990;-1.608;2022-10-16T08:43:08;6.13;;;1.05;;
49378;SDS011;35254;47.990;-1.608;2022-10-16T08:45:52;2.95;;;0.77;;
49378;SDS011;35254;47.990;-1.608;2022-10-16T08:48:27;5.80;;;1.38;;
49378;SDS011;35254;47.990;-1.608;2022-10-16T08:50:57;4.32;;;0.98;;
49378;SDS011;35254;47.990;-1.608;2022-10-16T08:53:27;2.78;;;1.00;;
49378;SDS011;35254;47.990;-1.608;2022-10-16T08:56:05;3.58;;;0.88;;
49378;SDS011;35254;47.990;-1.608;2022-10-16T08:58:31;3.80;;;1.00;;
49378;SDS011;35254;47.990;-1.608;2022-10-16T09:00:59;3.03;;;1.60;;
49378;SDS011;35254;47.990;-1.608;2022-10-16T09:12:08;1.83;;;1.33;;
49378;SDS011;35254;47.990;-1.608;2022-10-16T09:20:09;2.05;;;1.55;;
49378;SDS011;35254;47.990;-1.608;2022-10-16T09:25:30;4.88;;;2.20;;
49378;SDS011;35254;47.990;-1.608;2022-10-16T09:27:58;7.40;;;1.90;;
49378;SDS011;35254;47.990;-1.608;2022-10-16T09:30:25;4.78;;;1.92;;
49378;SDS011;35254;47.990;-1.608;2022-10-16T09:35:24;6.25;;;3.00;;
49378;SDS011;35254;47.990;-1.608;2022-10-16T09:38:25;26.13;;;5.28;;
49378;SDS011;35254;47.990;-1.608;2022-10-16T09:40:56;13.82;;;4.25;;
49378;SDS011;35254;47.990;-1.608;2022-10-16T09:43:25;10.25;;;2.42;;
49378;SDS011;35254;47.990;-1.608;2022-10-16T09:45:57;3.05;;;1.75;;
49378;SDS011;35254;47.990;-1.608;2022-10-16T09:48:25;5.00;;;2.05;;
49378;SDS011;35254;47.990;-1.608;2022-10-16T09:51:16;3.50;;;1.60;;
49378;SDS011;35254;47.990;-1.608;2022-10-16T09:53:53;12.05;;;1.88;;
49378;SDS011;35254;47.990;-1.608;2022-10-16T09:56:39;8.25;;;1.98;;
49378;SDS011;35254;47.990;-1.608;2022-10-16T09:59:10;1.60;;;1.35;;
49378;SDS011;35254;47.990;-1.608;2022-10-16T10:01:41;6.90;;;1.67;;
49378;SDS011;35254;47.990;-1.608;2022-10-16T10:04:10;4.05;;;1.77;;
49378;SDS011;35254;47.990;-1.608;2022-10-16T10:06:37;6.22;;;1.63;;
49378;SDS011;35254;47.990;-1.608;2022-10-16T10:09:49;9.52;;;1.45;;
49378;SDS011;35254;47.990;-1.608;2022-10-16T10:12:23;3.95;;;1.40;;
49378;SDS011;35254;47.990;-1.608;2022-10-16T10:14:51;12.20;;;3.33;;
49378;SDS011;35254;47.990;-1.608;2022-10-16T10:17:25;23.95;;;13.27;;
49378;SDS011;35254;47.990;-1.608;2022-10-16T10:41:09;32.90;;;10.07;;
49378;SDS011;35254;47.990;-1.608;2022-10-16T10:46:57;21.33;;;9.23;;
49378;SDS011;35254;47.990;-1.608;2022-10-16T10:54:52;16.48;;;7.13;;
49378;SDS011;35254;47.990;-1.608;2022-10-16T10:57:51;17.55;;;7.70;;
49378;SDS011;35254;47.990;-1.608;2022-10-16T11:06:04;12.65;;;6.18;;
49378;SDS011;35254;47.990;-1.608;2022-10-16T11:08:36;12.45;;;6.30;;
49378;SDS011;35254;47.990;-1.608;2022-10-16T11:13:33;14.30;;;5.18;;
49378;SDS011;35254;47.990;-1.608;2022-10-16T11:16:10;20.25;;;5.63;;
49378;SDS011;35254;47.990;-1.608;2022-10-16T11:19:26;18.15;;;5.55;;
49378;SDS011;35254;47.990;-1.608;2022-10-16T11:21:55;29.45;;;7.45;;
49378;SDS011;35254;47.990;-1.608;2022-10-16T11:24:45;19.25;;;5.90;;
49378;SDS011;35254;47.990;-1.608;2022-10-16T11:27:14;18.80;;;6.25;;
49378;SDS011;35254;47.990;-1.608;2022-10-16T11:35:39;18.05;;;6.40;;
49378;SDS011;35254;47.990;-1.608;2022-10-16T11:38:30;13.52;;;4.10;;
49378;SDS011;35254;47.990;-1.608;2022-10-16T11:43:52;20.48;;;5.88;;
49378;SDS011;35254;47.990;-1.608;2022-10-16T11:46:35;13.25;;;4.13;;
49378;SDS011;35254;47.990;-1.608;2022-10-16T11:49:37;14.77;;;4.68;;
49378;SDS011;35254;47.990;-1.608;2022-10-16T11:55:20;11.68;;;3.80;;
49378;SDS011;35254;47.990;-1.608;2022-10-16T11:57:28;8.95;;;4.00;;
49378;SDS011;35254;47.990;-1.608;2022-10-16T12:03:22;9.38;;;3.45;;
49378;SDS011;35254;47.990;-1.608;2022-10-16T12:08:55;11.90;;;3.40;;
49378;SDS011;35254;47.990;-1.608;2022-10-16T12:14:06;9.80;;;3.08;;
49378;SDS011;35254;47.990;-1.608;2022-10-16T12:16:36;9.60;;;3.60;;
49378;SDS011;35254;47.990;-1.608;2022-10-16T12:19:16;9.27;;;3.55;;
49378;SDS011;35254;47.990;-1.608;2022-10-16T12:21:43;15.93;;;3.03;;
49378;SDS011;35254;47.990;-1.608;2022-10-16T12:29:55;11.05;;;2.92;;
49378;SDS011;35254;47.990;-1.608;2022-10-16T12:34:59;11.30;;;3.20;;
49378;SDS011;35254;47.990;-1.608;2022-10-16T12:37:28;9.48;;;2.47;;
49378;SDS011;35254;47.990;-1.608;2022-10-16T12:39:57;10.95;;;2.90;;
49378;SDS011;35254;47.990;-1.608;2022-10-16T12:42:33;10.00;;;2.70;;
49378;SDS011;35254;47.990;-1.608;2022-10-16T12:44:59;8.05;;;2.53;;
49378;SDS011;35254;47.990;-1.608;2022-10-16T12:49:57;5.72;;;2.03;;
49378;SDS011;35254;47.990;-1.608;2022-10-16T12:52:36;7.65;;;2.63;;
49378;SDS011;35254;47.990;-1.608;2022-10-16T12:55:03;10.47;;;2.50;;
49378;SDS011;35254;47.990;-1.608;2022-10-16T13:22:05;5.13;;;2.25;;
49378;SDS011;35254;47.990;-1.608;2022-10-16T13:30:28;9.52;;;1.80;;
49378;SDS011;35254;47.990;-1.608;2022-10-16T13:33:00;4.53;;;1.27;;
49378;SDS011;35254;47.990;-1.608;2022-10-16T13:35:48;1.63;;;1.30;;
49378;SDS011;35254;47.990;-1.608;2022-10-16T13:38:16;7.30;;;1.40;;
49378;SDS011;35254;47.990;-1.608;2022-10-16T13:40:50;3.60;;;1.17;;
49378;SDS011;35254;47.990;-1.608;2022-10-16T13:46:02;1.95;;;0.90;;
49378;SDS011;35254;47.990;-1.608;2022-10-16T13:48:30;1.30;;;0.68;;
49378;SDS011;35254;47.990;-1.608;2022-10-16T13:51:01;4.22;;;0.93;;
49378;SDS011;35254;47.990;-1.608;2022-10-16T13:53:30;1.52;;;0.82;;
49378;SDS011;35254;47.990;-1.608;2022-10-16T13:55:57;1.65;;;0.80;;
49378;SDS011;35254;47.990;-1.608;2022-10-16T13:58:25;2.83;;;0.90;;
49378;SDS011;35254;47.990;-1.608;2022-10-16T14:01:01;3.08;;;1.08;;
49378;SDS011;35254;47.990;-1.608;2022-10-16T14:03:38;5.78;;;2.78;;
49378;SDS011;35254;47.990;-1.608;2022-10-16T14:06:05;6.93;;;3.33;;
49378;SDS011;35254;47.990;-1.608;2022-10-16T14:08:40;11.13;;;4.10;;
49378;SDS011;35254;47.990;-1.608;2022-10-16T14:13:38;10.95;;;4.90;;
49378;SDS011;35254;47.990;-1.608;2022-10-16T14:16:09;12.48;;;5.70;;
49378;SDS011;35254;47.990;-1.608;2022-10-16T14:18:40;19.15;;;6.53;;
49378;SDS011;35254;47.990;-1.608;2022-10-16T14:21:06;17.38;;;7.65;;
49378;SDS011;35254;47.990;-1.608;2022-10-16T14:23:37;13.48;;;6.63;;
49378;SDS011;35254;47.990;-1.608;2022-10-16T14:28:38;15.52;;;6.47;;
49378;SDS011;35254;47.990;-1.608;2022-10-16T14:33:51;16.30;;;6.65;;
49378;SDS011;35254;47.990;-1.608;2022-10-16T14:36:17;17.85;;;7.03;;
49378;SDS011;35254;47.990;-1.608;2022-10-16T14:41:30;13.82;;;7.45;;
49378;SDS011;35254;47.990;-1.608;2022-10-16T14:44:00;13.43;;;7.65;;
49378;SDS011;35254;47.990;-1.608;2022-10-16T14:48:59;11.27;;;6.43;;
49378;SDS011;35254;47.990;-1.608;2022-10-16T14:51:38;16.67;;;6.30;;
49378;SDS011;35254;47.990;-1.608;2022-10-16T14:54:10;15.10;;;6.47;;
49378;SDS011;35254;47.990;-1.608;2022-10-16T14:59:25;14.85;;;6.70;;
49378;SDS011;35254;47.990;-1.608;2022-10-16T15:01:54;8.75;;;5.30;;
49378;SDS011;35254;47.990;-1.608;2022-10-16T15:04:20;14.52;;;6.53;;
49378;SDS011;35254;47.990;-1.608;2022-10-16T15:06:46;12.80;;;6.22;;
49378;SDS011;35254;47.990;-1.608;2022-10-16T15:09:12;11.25;;;5.80;;
49378;SDS011;35254;47.990;-1.608;2022-10-16T15:11:37;10.05;;;6.35;;
49378;SDS011;35254;47.990;-1.608;2022-10-16T15:14:04;14.20;;;5.65;;
49378;SDS011;35254;47.990;-1.608;2022-10-16T15:16:30;16.77;;;5.43;;
49378;SDS011;35254;47.990;-1.608;2022-10-16T15:18:57;11.40;;;6.25;;
49378;SDS011;35254;47.990;-1.608;2022-10-16T15:21:24;14.02;;;6.35;;
49378;SDS011;35254;47.990;-1.608;2022-10-16T15:23:52;9.45;;;5.15;;
49378;SDS011;35254;47.990;-1.608;2022-10-16T15:26:18;14.30;;;5.75;;
49378;SDS011;35254;47.990;-1.608;2022-10-16T15:28:43;11.43;;;5.35;;
49378;SDS011;35254;47.990;-1.608;2022-10-16T15:31:09;14.98;;;4.55;;
49378;SDS011;35254;47.990;-1.608;2022-10-16T15:33:35;13.95;;;5.03;;
49378;SDS011;35254;47.990;-1.608;2022-10-16T15:36:01;14.98;;;4.72;;
49378;SDS011;35254;47.990;-1.608;2022-10-16T15:38:28;9.20;;;5.18;;
49378;SDS011;35254;47.990;-1.608;2022-10-16T15:40:55;14.55;;;5.85;;
49378;SDS011;35254;47.990;-1.608;2022-10-16T15:43:21;9.98;;;5.20;;
49378;SDS011;35254;47.990;-1.608;2022-10-16T15:45:59;6.85;;;4.47;;
49378;SDS011;35254;47.990;-1.608;2022-10-16T15:48:25;10.75;;;4.80;;
49378;SDS011;35254;47.990;-1.608;2022-10-16T15:50:51;11.07;;;5.75;;
49378;SDS011;35254;47.990;-1.608;2022-10-16T15:53:16;11.63;;;4.85;;
49378;SDS011;35254;47.990;-1.608;2022-10-16T15:55:42;11.70;;;5.28;;
49378;SDS011;35254;47.990;-1.608;2022-10-16T15:58:08;10.88;;;4.18;;
49378;SDS011;35254;47.990;-1.608;2022-10-16T16:00:33;7.93;;;4.22;;
49378;SDS011;35254;47.990;-1.608;2022-10-16T16:02:59;8.57;;;4.38;;
49378;SDS011;35254;47.990;-1.608;2022-10-16T16:05:24;8.93;;;3.90;;
49378;SDS011;35254;47.990;-1.608;2022-10-16T16:07:50;8.75;;;3.90;;
49378;SDS011;35254;47.990;-1.608;2022-10-16T16:10:16;6.03;;;3.20;;
49378;SDS011;35254;47.990;-1.608;2022-10-16T16:12:42;6.30;;;2.85;;
49378;SDS011;35254;47.990;-1.608;2022-10-16T16:15:08;7.47;;;3.35;;
49378;SDS011;35254;47.990;-1.608;2022-10-16T16:17:35;5.97;;;2.78;;
49378;SDS011;35254;47.990;-1.608;2022-10-16T16:20:01;8.90;;;3.15;;
49378;SDS011;35254;47.990;-1.608;2022-10-16T16:22:28;4.97;;;3.08;;
49378;SDS011;35254;47.990;-1.608;2022-10-16T16:24:54;5.43;;;3.05;;
49378;SDS011;35254;47.990;-1.608;2022-10-16T16:27:20;8.18;;;4.30;;
49378;SDS011;35254;47.990;-1.608;2022-10-16T16:29:46;4.78;;;2.50;;
49378;SDS011;35254;47.990;-1.608;2022-10-16T16:32:12;7.53;;;3.20;;
49378;SDS011;35254;47.990;-1.608;2022-10-16T16:34:38;6.10;;;2.25;;
49378;SDS011;35254;47.990;-1.608;2022-10-16T16:37:04;6.05;;;3.17;;
49378;SDS011;35254;47.990;-1.608;2022-10-16T16:39:29;4.78;;;2.63;;
49378;SDS011;35254;47.990;-1.608;2022-10-16T16:41:55;6.55;;;3.05;;
49378;SDS011;35254;47.990;-1.608;2022-10-16T16:44:23;4.25;;;2.13;;
49378;SDS011;35254;47.990;-1.608;2022-10-16T16:46:49;7.30;;;2.53;;
49378;SDS011;35254;47.990;-1.608;2022-10-16T16:49:15;4.72;;;2.58;;
49378;SDS011;35254;47.990;-1.608;2022-10-16T16:51:41;3.50;;;1.77;;
49378;SDS011;35254;47.990;-1.608;2022-10-16T16:54:07;5.80;;;2.28;;
49378;SDS011;35254;47.990;-1.608;2022-10-16T16:56:34;2.97;;;1.92;;
49378;SDS011;35254;47.990;-1.608;2022-10-16T16:59:00;6.35;;;1.90;;
49378;SDS011;35254;47.990;-1.608;2022-10-16T17:01:26;3.55;;;1.23;;
49378;SDS011;35254;47.990;-1.608;2022-10-16T17:03:54;1.98;;;1.15;;
49378;SDS011;35254;47.990;-1.608;2022-10-16T17:06:22;1.67;;;0.95;;
49378;SDS011;35254;47.990;-1.608;2022-10-16T17:08:52;1.48;;;1.17;;
49378;SDS011;35254;47.990;-1.608;2022-10-16T17:11:19;4.90;;;1.05;;
49378;SDS011;35254;47.990;-1.608;2022-10-16T17:13:47;2.58;;;1.17;;
49378;SDS011;35254;47.990;-1.608;2022-10-16T17:16:13;1.73;;;1.10;;
49378;SDS011;35254;47.990;-1.608;2022-10-16T17:18:39;4.18;;;1.30;;
49378;SDS011;35254;47.990;-1.608;2022-10-16T17:21:06;3.53;;;1.25;;
49378;SDS011;35254;47.990;-1.608;2022-10-16T17:23:33;1.75;;;1.45;;
49378;SDS011;35254;47.990;-1.608;2022-10-16T17:26:04;5.90;;;2.22;;